createdAt,value
2017-09-05T00:00:23.975Z,6.70
2017-09-05T00:02:56.192Z,6.60
2017-09-05T00:05:28.659Z,6.93
2017-09-05T00:08:01.717Z,6.60
2017-09-05T00:10:34.202Z,6.80
2017-09-05T00:16:11.213Z,6.67
2017-09-05T00:18:43.498Z,7.30
2017-09-05T00:21:17.912Z,6.93
2017-09-05T00:23:51.012Z,6.73
2017-09-05T00:26:23.622Z,7.40
2017-09-05T00:28:55.914Z,7.70
2017-09-05T00:31:28.126Z,7.57
2017-09-05T00:34:00.640Z,6.97
2017-09-05T00:36:33.172Z,7.37
2017-09-05T00:39:05.595Z,7.10
2017-09-05T00:41:37.986Z,7.77
2017-09-05T00:44:10.242Z,6.77
2017-09-05T00:46:42.703Z,6.97
2017-09-05T00:49:15.043Z,6.40
2017-09-05T00:51:47.511Z,7.33
2017-09-05T00:54:19.758Z,6.70
2017-09-05T00:56:52.074Z,7.80
2017-09-05T00:59:24.355Z,7.57
2017-09-05T01:01:56.742Z,6.93
2017-09-05T01:04:29.009Z,6.93
2017-09-05T01:07:01.357Z,7.30
2017-09-05T01:09:34.352Z,8.03
2017-09-05T01:12:07.472Z,7.50
2017-09-05T01:14:39.697Z,7.60
2017-09-05T01:17:12.161Z,8.03
2017-09-05T01:19:44.405Z,8.07
2017-09-05T01:22:16.781Z,7.70
2017-09-05T01:24:49.068Z,8.10
2017-09-05T01:27:21.401Z,7.87
2017-09-05T01:29:53.794Z,8.70
2017-09-05T01:32:26.916Z,8.73
2017-09-05T01:35:00.226Z,8.23
2017-09-05T01:37:32.812Z,8.73
2017-09-05T01:40:09.079Z,9.00
2017-09-05T01:42:41.412Z,8.90
2017-09-05T01:45:13.700Z,8.53
2017-09-05T01:47:46.465Z,8.97
2017-09-05T01:50:18.857Z,9.07
2017-09-05T01:52:51.417Z,9.13
2017-09-05T01:55:23.759Z,8.80
2017-09-05T01:57:57.407Z,10.23
2017-09-05T02:00:29.670Z,9.30
2017-09-05T02:03:02.243Z,9.00
2017-09-05T02:05:34.433Z,9.70
2017-09-05T02:08:06.872Z,9.33
2017-09-05T02:10:39.117Z,9.30
2017-09-05T02:13:11.823Z,8.47
2017-09-05T02:15:44.150Z,9.67
2017-09-05T02:18:16.798Z,9.23
2017-09-05T02:20:49.128Z,9.10
2017-09-05T02:23:21.634Z,9.23
2017-09-05T02:25:53.948Z,9.67
2017-09-05T02:28:26.209Z,9.87
2017-09-05T02:30:58.473Z,10.40
2017-09-05T02:33:31.003Z,9.43
2017-09-05T02:36:03.180Z,9.57
2017-09-05T02:38:35.657Z,10.00
2017-09-05T02:41:08.098Z,10.27
2017-09-05T02:43:40.717Z,9.97
2017-09-05T02:46:13.002Z,9.10
2017-09-05T02:48:45.361Z,9.03
2017-09-05T02:51:17.615Z,9.20
2017-09-05T02:53:49.948Z,9.30
2017-09-05T02:56:22.146Z,9.10
2017-09-05T02:58:54.545Z,9.27
2017-09-05T03:01:26.900Z,9.50
2017-09-05T03:03:59.328Z,9.27
2017-09-05T03:06:31.700Z,9.20
2017-09-05T03:09:03.969Z,9.10
2017-09-05T03:11:36.217Z,8.53
2017-09-05T03:14:08.490Z,9.40
2017-09-05T03:16:40.923Z,9.20
2017-09-05T03:19:13.383Z,9.23
2017-09-05T03:21:45.787Z,10.00
2017-09-05T03:24:18.189Z,9.10
2017-09-05T03:26:50.581Z,9.20
2017-09-05T03:29:22.770Z,10.17
2017-09-05T03:31:55.213Z,10.40
2017-09-05T03:34:27.488Z,10.47
2017-09-05T03:36:59.888Z,9.90
2017-09-05T03:39:32.149Z,9.97
2017-09-05T03:42:04.318Z,11.60
2017-09-05T03:44:36.741Z,10.40
2017-09-05T03:47:09.098Z,10.97
2017-09-05T03:49:41.570Z,10.70
2017-09-05T03:52:13.962Z,10.50
2017-09-05T03:54:46.293Z,10.40
2017-09-05T03:57:18.656Z,12.23
2017-09-05T03:59:51.079Z,11.70
2017-09-05T04:02:23.389Z,12.50
2017-09-05T04:04:55.804Z,12.23
2017-09-05T04:07:28.111Z,12.57
2017-09-05T04:10:00.666Z,12.37
2017-09-05T04:12:33.042Z,13.00
2017-09-05T04:15:05.514Z,12.70
2017-09-05T04:17:37.700Z,13.70
2017-09-05T04:20:09.961Z,12.90
2017-09-05T04:22:42.323Z,12.97
2017-09-05T04:25:14.478Z,13.60
2017-09-05T04:27:46.793Z,12.57
2017-09-05T04:30:19.573Z,13.10
2017-09-05T04:32:51.937Z,12.93
2017-09-05T04:35:24.308Z,13.10
2017-09-05T04:37:56.669Z,14.30
2017-09-05T04:40:29.258Z,12.93
2017-09-05T04:43:01.631Z,13.30
2017-09-05T04:45:33.778Z,13.47
2017-09-05T04:48:06.233Z,13.53
2017-09-05T04:50:38.612Z,13.23
2017-09-05T04:53:10.998Z,13.13
2017-09-05T04:55:43.764Z,12.30
2017-09-05T04:58:16.090Z,13.67
2017-09-05T05:00:48.693Z,12.60
2017-09-05T05:03:20.979Z,13.83
2017-09-05T05:05:53.405Z,13.43
2017-09-05T05:08:25.574Z,13.10
2017-09-05T05:10:57.984Z,13.67
2017-09-05T05:13:30.288Z,13.47
2017-09-05T05:16:02.865Z,14.07
2017-09-05T05:18:35.320Z,13.80
2017-09-05T05:21:07.505Z,13.23
2017-09-05T05:23:39.792Z,14.03
2017-09-05T05:26:12.189Z,13.90
2017-09-05T05:28:44.425Z,14.30
2017-09-05T05:31:16.772Z,14.27
2017-09-05T05:33:49.061Z,13.97
2017-09-05T05:36:21.798Z,14.00
2017-09-05T05:38:54.193Z,12.70
2017-09-05T05:41:26.407Z,12.90
2017-09-05T05:43:58.589Z,12.70
2017-09-05T05:46:30.917Z,13.50
2017-09-05T05:49:03.331Z,12.83
2017-09-05T05:51:35.510Z,12.80
2017-09-05T05:54:07.750Z,11.80
2017-09-05T05:56:39.967Z,12.30
2017-09-05T05:59:12.158Z,11.87
2017-09-05T06:01:44.546Z,11.63
2017-09-05T06:04:16.819Z,10.87
2017-09-05T06:06:49.059Z,12.10
2017-09-05T06:09:21.258Z,10.90
2017-09-05T06:11:53.866Z,11.13
2017-09-05T06:14:26.093Z,9.73
2017-09-05T06:16:58.336Z,9.83
2017-09-05T06:19:30.718Z,8.97
2017-09-05T06:22:03.149Z,9.37
2017-09-05T06:24:35.312Z,9.67
2017-09-05T06:27:07.619Z,9.50
2017-09-05T06:29:39.977Z,9.40
2017-09-05T06:32:12.290Z,9.70
2017-09-05T06:34:44.497Z,9.60
2017-09-05T06:37:16.906Z,9.50
2017-09-05T06:39:49.243Z,8.97
2017-09-05T06:42:21.556Z,9.07
2017-09-05T06:44:53.824Z,8.80
2017-09-05T06:47:25.991Z,8.60
2017-09-05T06:49:58.174Z,8.00
2017-09-05T06:52:30.523Z,9.20
2017-09-05T06:55:02.993Z,10.77
2017-09-05T06:57:35.249Z,8.33
2017-09-05T07:00:07.407Z,7.63
2017-09-05T07:02:39.956Z,6.40
2017-09-05T07:05:12.218Z,6.33
2017-09-05T07:07:44.558Z,6.30
2017-09-05T07:10:16.802Z,5.50
2017-09-05T07:12:42.994Z,5.80
2017-09-05T07:15:09.259Z,5.87
2017-09-05T07:17:35.435Z,4.97
2017-09-05T07:20:01.566Z,5.53
2017-09-05T07:22:27.922Z,5.10
2017-09-05T07:24:54.206Z,4.80
2017-09-05T07:27:27.418Z,4.63
2017-09-05T07:29:53.567Z,4.10
2017-09-05T07:32:19.836Z,4.30
2017-09-05T07:34:46.010Z,4.37
2017-09-05T07:37:12.258Z,4.20
2017-09-05T07:39:38.472Z,4.40
2017-09-05T07:42:04.630Z,5.10
2017-09-05T07:44:31.129Z,4.50
2017-09-05T07:46:57.474Z,4.53
2017-09-05T07:49:24.786Z,5.63
2017-09-05T07:51:51.267Z,6.20
2017-09-05T07:54:17.603Z,6.10
2017-09-05T07:56:43.836Z,7.70
2017-09-05T07:59:10.426Z,4.90
2017-09-05T08:01:36.564Z,13.07
2017-09-05T08:04:02.850Z,8.20
2017-09-05T08:06:29.457Z,12.97
2017-09-05T08:08:55.659Z,9.87
2017-09-05T08:11:21.911Z,7.30
2017-09-05T08:13:48.447Z,4.80
2017-09-05T08:16:14.657Z,5.60
2017-09-05T08:18:40.798Z,5.80
2017-09-05T08:21:07.228Z,9.80
2017-09-05T08:23:33.362Z,4.70
2017-09-05T08:25:59.562Z,4.70
2017-09-05T08:28:26.225Z,4.00
2017-09-05T08:30:52.521Z,4.37
2017-09-05T08:33:18.712Z,4.67
2017-09-05T08:35:44.897Z,4.70
2017-09-05T08:38:11.035Z,4.43
2017-09-05T08:40:37.241Z,4.00
2017-09-05T08:43:03.620Z,4.00
2017-09-05T08:45:29.810Z,3.90
2017-09-05T08:47:56.035Z,4.23
2017-09-05T08:50:22.304Z,4.47
2017-09-05T08:52:48.463Z,4.33
2017-09-05T08:55:14.612Z,4.37
2017-09-05T08:57:40.868Z,4.00
2017-09-05T09:00:07.132Z,5.17
2017-09-05T09:02:33.322Z,4.50
2017-09-05T09:04:59.486Z,4.00
2017-09-05T09:07:25.636Z,4.40
2017-09-05T09:09:51.776Z,3.87
2017-09-05T09:12:18.470Z,5.30
2017-09-05T09:14:44.626Z,4.50
2017-09-05T09:17:10.835Z,5.43
2017-09-05T09:19:37.116Z,5.30
2017-09-05T09:22:03.359Z,5.20
2017-09-05T09:24:29.595Z,11.03
2017-09-05T09:26:55.823Z,6.10
2017-09-05T09:29:21.988Z,6.00
2017-09-05T09:31:48.131Z,21.83
2017-09-05T09:34:14.332Z,9.17
2017-09-05T09:36:40.564Z,33.37
2017-09-05T09:39:06.704Z,13.40
2017-09-05T09:41:32.856Z,17.03
2017-09-05T09:43:59.083Z,9.37
2017-09-05T09:46:25.233Z,9.47
2017-09-05T09:48:51.460Z,11.80
2017-09-05T09:51:17.718Z,7.77
2017-09-05T09:53:43.905Z,7.77
2017-09-05T09:56:10.128Z,7.67
2017-09-05T09:58:36.362Z,8.07
2017-09-05T10:01:02.540Z,7.00
2017-09-05T10:03:28.672Z,7.57
2017-09-05T10:05:54.790Z,8.83
2017-09-05T10:08:20.961Z,7.70
2017-09-05T10:10:47.215Z,7.60
2017-09-05T10:13:13.420Z,7.20
2017-09-05T10:15:39.702Z,6.97
2017-09-05T10:18:05.891Z,7.60
2017-09-05T10:20:32.016Z,6.80
2017-09-05T10:22:58.197Z,7.80
2017-09-05T10:25:24.370Z,7.37
2017-09-05T10:27:50.546Z,7.50
2017-09-05T10:30:16.676Z,7.80
2017-09-05T10:32:42.838Z,7.50
2017-09-05T10:35:09.040Z,7.90
2017-09-05T10:37:35.193Z,7.10
2017-09-05T10:40:01.428Z,7.47
2017-09-05T10:42:27.557Z,7.60
2017-09-05T10:44:53.737Z,8.53
2017-09-05T10:47:19.975Z,8.60
2017-09-05T10:49:46.096Z,8.00
2017-09-05T10:52:12.678Z,7.93
2017-09-05T10:54:38.887Z,8.10
2017-09-05T10:57:05.181Z,8.03
2017-09-05T10:59:31.376Z,8.33
2017-09-05T11:01:57.895Z,8.23
2017-09-05T11:04:24.158Z,8.13
2017-09-05T11:06:50.599Z,7.73
2017-09-05T11:09:17.088Z,7.40
2017-09-05T11:11:44.325Z,8.57
2017-09-05T11:14:10.654Z,9.10
2017-09-05T11:16:36.986Z,7.70
2017-09-05T11:19:04.190Z,7.60
2017-09-05T11:21:30.353Z,6.57
2017-09-05T11:23:56.621Z,5.97
2017-09-05T11:26:22.847Z,6.53
2017-09-05T11:28:49.363Z,6.00
2017-09-05T11:31:15.578Z,6.70
2017-09-05T11:33:42.783Z,6.17
2017-09-05T11:36:09.000Z,6.40
2017-09-05T11:38:36.091Z,6.23
2017-09-05T11:41:02.308Z,6.70
2017-09-05T11:43:28.436Z,6.50
2017-09-05T11:45:54.724Z,7.30
2017-09-05T11:48:20.901Z,6.40
2017-09-05T11:50:47.027Z,5.60
2017-09-05T11:53:13.191Z,6.47
2017-09-05T11:55:39.417Z,5.93
2017-09-05T11:58:05.537Z,6.20
2017-09-05T12:00:31.682Z,6.00
2017-09-05T12:02:57.932Z,5.90
2017-09-05T12:05:24.089Z,5.77
2017-09-05T12:07:50.240Z,6.20
2017-09-05T12:10:16.450Z,6.47
2017-09-05T12:12:42.591Z,5.50
2017-09-05T12:15:08.801Z,5.90
2017-09-05T12:17:34.997Z,6.70
2017-09-05T12:20:01.159Z,8.17
2017-09-05T12:22:27.316Z,6.80
2017-09-05T12:24:53.522Z,5.63
2017-09-05T12:27:19.695Z,5.80
2017-09-05T12:29:45.951Z,5.10
2017-09-05T12:32:12.090Z,5.90
2017-09-05T12:34:38.310Z,5.10
2017-09-05T12:37:04.691Z,4.87
2017-09-05T12:39:31.038Z,6.03
2017-09-05T12:41:58.380Z,6.87
2017-09-05T12:44:24.896Z,6.60
2017-09-05T12:46:51.245Z,5.70
2017-09-05T12:49:17.530Z,5.83
2017-09-05T12:51:44.222Z,5.80
2017-09-05T12:54:10.712Z,5.53
2017-09-05T12:56:36.939Z,5.90
2017-09-05T12:59:03.301Z,5.67
2017-09-05T13:01:29.582Z,6.00
2017-09-05T13:03:55.831Z,5.40
2017-09-05T13:06:22.493Z,5.27
2017-09-05T13:08:48.906Z,5.13
2017-09-05T13:11:16.115Z,5.87
2017-09-05T13:13:43.684Z,5.57
2017-09-05T13:16:10.931Z,6.70
2017-09-05T13:18:37.526Z,5.83
2017-09-05T13:21:03.842Z,5.87
2017-09-05T13:23:30.027Z,5.70
2017-09-05T13:25:56.389Z,4.50
2017-09-05T13:28:23.065Z,5.43
2017-09-05T13:30:49.211Z,5.60
2017-09-05T13:33:16.593Z,6.03
2017-09-05T13:35:42.823Z,6.10
2017-09-05T13:38:09.087Z,7.10
2017-09-05T13:40:35.447Z,5.60
2017-09-05T13:43:01.607Z,5.80
2017-09-05T13:45:27.794Z,8.00
2017-09-05T13:47:54.036Z,6.00
2017-09-05T13:50:20.193Z,5.60
2017-09-05T13:52:46.424Z,6.33
2017-09-05T13:55:12.593Z,5.93
2017-09-05T13:57:38.781Z,5.93
2017-09-05T14:00:05.059Z,5.93
2017-09-05T14:02:31.268Z,5.43
2017-09-05T14:04:57.498Z,5.63
2017-09-05T14:07:23.718Z,6.30
2017-09-05T14:09:50.063Z,5.70
2017-09-05T14:12:16.292Z,6.30
2017-09-05T14:14:42.479Z,5.93
2017-09-05T14:17:08.690Z,5.00
2017-09-05T14:19:34.857Z,5.00
2017-09-05T14:22:01.097Z,5.53
2017-09-05T14:24:27.425Z,5.57
2017-09-05T14:26:53.564Z,5.13
2017-09-05T14:29:19.782Z,5.10
2017-09-05T14:31:46.172Z,4.57
2017-09-05T14:34:12.337Z,4.83
2017-09-05T14:36:38.576Z,5.20
2017-09-05T14:39:04.927Z,6.00
2017-09-05T14:41:31.106Z,5.03
2017-09-05T14:43:57.280Z,6.40
2017-09-05T14:46:23.503Z,5.30
2017-09-05T14:48:49.707Z,5.60
2017-09-05T14:51:16.028Z,5.00
2017-09-05T14:53:42.207Z,4.70
2017-09-05T14:56:08.378Z,5.03
2017-09-05T14:58:34.610Z,5.17
2017-09-05T15:01:00.910Z,4.70
2017-09-05T15:03:27.138Z,5.50
2017-09-05T15:05:53.407Z,4.67
2017-09-05T15:08:20.250Z,5.03
2017-09-05T15:10:46.588Z,4.47
2017-09-05T15:13:13.947Z,4.60
2017-09-05T15:15:40.171Z,5.40
2017-09-05T15:18:07.325Z,5.10
2017-09-05T15:20:40.810Z,5.00
2017-09-05T15:23:08.137Z,5.03
2017-09-05T15:25:34.347Z,6.10
2017-09-05T15:28:00.632Z,5.40
2017-09-05T15:30:26.926Z,5.57
2017-09-05T15:32:53.183Z,6.27
2017-09-05T15:35:25.513Z,5.23
2017-09-05T15:37:57.870Z,6.10
2017-09-05T15:40:30.197Z,5.67
2017-09-05T15:43:02.646Z,5.97
2017-09-05T15:45:34.835Z,5.70
2017-09-05T15:48:07.117Z,6.20
2017-09-05T15:50:39.313Z,6.60
2017-09-05T15:53:11.505Z,5.93
2017-09-05T15:55:43.870Z,6.10
2017-09-05T15:58:16.018Z,5.30
2017-09-05T16:00:48.503Z,5.63
2017-09-05T16:03:20.804Z,5.73
2017-09-05T16:05:53.213Z,6.30
2017-09-05T16:08:25.441Z,6.73
2017-09-05T16:10:57.928Z,7.10
2017-09-05T16:13:30.393Z,5.80
2017-09-05T16:16:02.761Z,5.97
2017-09-05T16:18:34.989Z,5.43
2017-09-05T16:21:07.373Z,6.00
2017-09-05T16:23:39.633Z,7.77
2017-09-05T16:26:11.868Z,10.27
2017-09-05T16:28:44.084Z,8.60
2017-09-05T16:31:16.525Z,6.67
2017-09-05T16:33:48.971Z,8.43
2017-09-05T16:36:21.306Z,8.20
2017-09-05T16:38:53.631Z,6.23
2017-09-05T16:41:25.866Z,7.53
2017-09-05T16:43:58.259Z,8.27
2017-09-05T16:46:30.746Z,8.40
2017-09-05T16:49:02.956Z,7.70
2017-09-05T16:51:35.354Z,11.30
2017-09-05T16:54:08.362Z,8.40
2017-09-05T16:56:40.612Z,8.27
2017-09-05T16:59:13.139Z,8.77
2017-09-05T17:01:45.594Z,13.03
2017-09-05T17:04:18.073Z,9.17
2017-09-05T17:06:50.564Z,8.40
2017-09-05T17:09:22.690Z,7.50
2017-09-05T17:11:54.999Z,11.70
2017-09-05T17:14:27.434Z,26.80
2017-09-05T17:16:59.958Z,45.13
2017-09-05T17:19:32.188Z,40.33
2017-09-05T17:22:04.446Z,17.53
2017-09-05T17:24:36.916Z,30.03
2017-09-05T17:27:09.113Z,18.93
2017-09-05T17:29:41.520Z,13.53
2017-09-05T17:32:13.784Z,15.53
2017-09-05T17:34:46.172Z,20.00
2017-09-05T17:37:18.478Z,20.23
2017-09-05T17:39:50.932Z,19.60
2017-09-05T17:42:23.363Z,20.03
2017-09-05T17:44:56.640Z,20.00
2017-09-05T17:47:29.275Z,20.50
2017-09-05T17:50:01.649Z,18.30
2017-09-05T17:52:35.370Z,19.27
2017-09-05T17:55:07.699Z,17.83
2017-09-05T17:57:39.958Z,21.10
2017-09-05T18:00:12.403Z,27.23
2017-09-05T18:02:44.822Z,38.60
2017-09-05T18:05:17.233Z,26.53
2017-09-05T18:07:50.137Z,31.67
2017-09-05T18:10:22.497Z,18.50
2017-09-05T18:12:54.869Z,21.30
2017-09-05T18:15:27.283Z,20.63
2017-09-05T18:18:00.104Z,19.20
2017-09-05T18:20:33.154Z,16.60
2017-09-05T18:23:05.448Z,22.70
2017-09-05T18:25:37.829Z,18.83
2017-09-05T18:28:10.292Z,38.70
2017-09-05T18:30:42.834Z,30.90
2017-09-05T18:33:15.239Z,26.37
2017-09-05T18:35:48.394Z,27.27
2017-09-05T18:38:20.769Z,20.57
2017-09-05T18:40:52.993Z,70.23
2017-09-05T18:43:25.319Z,60.40
2017-09-05T18:45:57.685Z,17.47
2017-09-05T18:48:30.150Z,53.10
2017-09-05T18:51:02.678Z,28.27
2017-09-05T18:53:38.780Z,12.87
2017-09-05T18:56:15.934Z,20.80
2017-09-05T18:58:48.317Z,20.10
2017-09-05T19:01:20.904Z,39.47
2017-09-05T19:03:53.234Z,17.93
2017-09-05T19:06:25.739Z,19.30
2017-09-05T19:08:58.437Z,17.10
2017-09-05T19:11:31.004Z,21.90
2017-09-05T19:14:03.300Z,32.27
2017-09-05T19:16:35.779Z,19.70
2017-09-05T19:19:08.136Z,17.27
2017-09-05T19:21:41.432Z,17.63
2017-09-05T19:24:13.723Z,19.90
2017-09-05T19:26:46.220Z,23.77
2017-09-05T19:29:18.545Z,18.80
2017-09-05T19:31:51.070Z,25.13
2017-09-05T19:34:23.754Z,22.87
2017-09-05T19:36:56.033Z,25.87
2017-09-05T19:39:28.326Z,27.50
2017-09-05T19:42:00.766Z,30.50
2017-09-05T19:44:33.114Z,27.47
2017-09-05T19:47:05.470Z,19.70
2017-09-05T19:49:38.363Z,17.13
2017-09-05T19:52:10.996Z,20.70
2017-09-05T19:54:43.321Z,19.93
2017-09-05T19:57:15.933Z,19.93
2017-09-05T19:59:48.267Z,19.50
2017-09-05T20:02:20.794Z,23.80
2017-09-05T20:04:53.529Z,32.20
2017-09-05T20:07:26.888Z,41.10
2017-09-05T20:09:59.356Z,44.53
2017-09-05T20:12:31.830Z,27.83
2017-09-05T20:15:04.291Z,37.43
2017-09-05T20:17:36.819Z,33.83
2017-09-05T20:20:09.894Z,27.50
2017-09-05T20:22:42.560Z,23.37
2017-09-05T20:25:14.893Z,23.83
2017-09-05T20:27:47.581Z,24.60
2017-09-05T20:30:22.136Z,22.83
2017-09-05T20:32:54.508Z,19.57
2017-09-05T20:35:26.734Z,19.50
2017-09-05T20:37:59.041Z,18.87
2017-09-05T20:40:31.527Z,20.60
2017-09-05T20:43:04.275Z,19.27
2017-09-05T20:45:36.641Z,22.73
2017-09-05T20:48:09.351Z,21.40
2017-09-05T20:50:41.766Z,21.00
2017-09-05T20:53:14.715Z,33.83
2017-09-05T20:55:46.946Z,18.20
2017-09-05T20:58:19.565Z,20.13
2017-09-05T21:00:51.885Z,19.73
2017-09-05T21:03:24.731Z,17.70
2017-09-05T21:05:56.991Z,18.40
2017-09-05T21:08:29.432Z,18.90
2017-09-05T21:11:01.586Z,19.83
2017-09-05T21:13:34.423Z,21.63
2017-09-05T21:16:06.751Z,19.10
2017-09-05T21:18:39.696Z,29.33
2017-09-05T21:21:12.370Z,28.43
2017-09-05T21:23:45.475Z,18.23
2017-09-05T21:26:17.978Z,19.70
2017-09-05T21:28:50.706Z,21.63
2017-09-05T21:31:22.983Z,21.20
2017-09-05T21:33:55.704Z,19.13
2017-09-05T21:36:28.240Z,30.63
2017-09-05T21:39:00.809Z,22.60
2017-09-05T21:41:33.258Z,20.13
2017-09-05T21:44:05.816Z,19.40
2017-09-05T21:46:38.074Z,19.40
2017-09-05T21:49:10.725Z,19.90
2017-09-05T21:51:42.975Z,20.13
2017-09-05T21:54:15.429Z,20.60
2017-09-05T21:56:47.764Z,21.17
2017-09-05T21:59:20.514Z,21.10
2017-09-05T22:01:52.713Z,20.70
2017-09-05T22:04:26.586Z,20.73
2017-09-05T22:06:58.886Z,20.77
2017-09-05T22:09:31.429Z,20.33
2017-09-05T22:12:03.729Z,20.77
2017-09-05T22:14:42.518Z,21.20
2017-09-05T22:17:18.613Z,21.63
2017-09-05T22:19:57.525Z,20.27
2017-09-05T22:22:43.039Z,22.57
2017-09-05T22:25:21.702Z,22.13
2017-09-05T22:28:00.072Z,19.87
2017-09-05T22:30:32.575Z,20.33
2017-09-05T22:33:04.780Z,20.77
2017-09-05T22:35:37.418Z,20.20
2017-09-05T22:38:09.628Z,20.73
2017-09-05T22:40:42.368Z,19.93
2017-09-05T22:43:14.754Z,21.10
2017-09-05T22:45:54.204Z,20.67
2017-09-05T22:48:26.514Z,20.60
2017-09-05T22:50:59.275Z,22.27
2017-09-05T22:53:31.566Z,21.50
2017-09-05T22:56:04.196Z,22.20
2017-09-05T22:58:36.548Z,21.30
2017-09-05T23:01:09.300Z,22.20
2017-09-05T23:03:41.665Z,20.40
2017-09-05T23:06:14.386Z,20.73
2017-09-05T23:08:46.942Z,21.67
2017-09-05T23:11:19.488Z,23.67
2017-09-05T23:13:51.924Z,22.93
2017-09-05T23:16:24.498Z,21.97
2017-09-05T23:18:56.766Z,22.27
2017-09-05T23:21:29.355Z,22.23
2017-09-05T23:24:01.668Z,20.80
2017-09-05T23:26:34.609Z,20.77
2017-09-05T23:29:06.819Z,20.57
2017-09-05T23:31:39.614Z,20.90
2017-09-05T23:34:11.820Z,23.63
2017-09-05T23:36:44.493Z,21.57
2017-09-05T23:39:16.609Z,21.53
2017-09-05T23:41:49.272Z,21.10
2017-09-05T23:44:21.726Z,20.63
2017-09-05T23:46:54.731Z,21.47
2017-09-05T23:49:27.017Z,21.67
2017-09-05T23:52:00.578Z,21.87
2017-09-05T23:54:32.725Z,23.03
2017-09-05T23:57:05.466Z,24.60
2017-09-05T23:59:37.907Z,23.97
